Rapports des METAR proches

 

LFAQ - Bray, France
Distance from station: SSO 19km
Mise à jour: 21/09/2020 06:00
Clair
Clair
 Vent NE
Vent: NE 20 km/h
Température: 12°C
Point de rosée: 9°C
Humidité: 82%
Baromètre: 1015 hPa
Résumé: Clair
Visibility: greater than 10 km
2020/09/21 04:00 LFAQ 210400Z AUTO 05011KT CAVOK 12/09 Q1015
LFQQ - Lille/Lesquin, France
Distance from station: NNE 53km
Mise à jour: 21/09/2020 06:00
Clair
Clair
 Vent NNE
Vent: NNE 6 km/h
Température: 11°C
Point de rosée: 8°C
Humidité: 82%
Baromètre: 1016 hPa
Résumé: Clair
Visibility: greater than 10 km
2020/09/21 04:00 LFQQ 210400Z AUTO 03003KT CAVOK 11/08 Q1016
EBCV - Chievres Ab, Belgium
Distance from station: NE 88km
Mise à jour: 21/09/2020 06:05
Clair
Clair
 Vent varies
Vent: varies 2 km/h
Température: 6°C
Point de rosée: 5°C
Humidité: 93%
Baromètre: 1016 hPa
Clouds: Clair
Visibility: 7 km
2020/09/21 04:05 EBCV 210405Z AUTO VRB01KT 7000 NCD 06/05 Q1016 WHT
 
LFOB - Beauvais/Tille(A, France
Distance from station: SSO 88km
Mise à jour: 21/09/2020 06:00
Clair
Clair
 Vent NO
Vent: NO 11 km/h
Température: 9°C
Température au vent: 7°C
Point de rosée: 9°C
Humidité: 100%
Baromètre: 1015 hPa
Résumé: Clair
Visibility: greater than 10 km
2020/09/21 04:00 LFOB 210400Z AUTO 32006KT CAVOK 09/09 Q1015
LFAT - Le Touquet/P. Pl, France
Distance from station: ONO 93km
Mise à jour: 21/09/2020 06:00
Clair
Clair
 Vent S
Vent: S 4 km/h
Température: 10°C
Point de rosée: 9°C
Humidité: 94%
Baromètre: 1016 hPa
Résumé: Clair
Visibility: greater than 10 km
2020/09/21 04:00 LFAT 210400Z AUTO 19002KT CAVOK 10/09 Q1016
EBFN - Koksijde (bel-Af, Belgium
Distance from station: N 105km
Mise à jour: 21/09/2020 05:55
Clair
Clair
 Vent NNE
Vent: NNE 7 km/h
Température: 11°C
Point de rosée: 9°C
Humidité: 88%
Baromètre: 1016 hPa
Clouds: Clair
Visibility: 10 km
2020/09/21 03:55 EBFN 210355Z AUTO 03004KT 9999 NCD 11/09 Q1016 BLU
 
EBOS - Oostende Airport, Belgium
Distance from station: N 119km
Mise à jour: 21/09/2020 05:50
Clair
Clair
 Vent ENE
Vent: ENE 7 km/h
Température: 10°C
Température au vent: 9°C
Point de rosée: 8°C
Humidité: 88%
Baromètre: 1017 hPa
Résumé: Clair
Visibility: greater than 10 km
2020/09/21 03:50 EBOS 210350Z 06004KT CAVOK 10/08 Q1017 NOSIG
EBCI - Charleroi/Gossel, Belgium
Distance from station: ENE 124km
Mise à jour: 21/09/2020 05:50
Clair
Clair
 Vent NNE
Vent: NNE 6 km/h
Température: 10°C
Point de rosée: 6°C
Humidité: 76%
Baromètre: 1016 hPa
Résumé: Clair
Visibility: greater than 10 km
2020/09/21 03:50 EBCI 210350Z 03003KT CAVOK 10/06 Q1016 NOSIG
LFPG - Charles De Gaull, France
Distance from station: S 125km
Mise à jour: 21/09/2020 06:00
Clair
Clair
 Vent N
Vent: N 15 km/h
Température: 13°C
Point de rosée: 9°C
Humidité: 77%
Baromètre: 1015 hPa
Résumé: Clair
Visibility: greater than 10 km
2020/09/21 04:00 LFPG 210400Z 01008KT CAVOK 13/09 Q1015 NOSIG
 
LFPT - Cormeilles Vexin, France
Distance from station: SSO 127km
Mise à jour: 21/09/2020 06:00
Clair
Clair
 Vent O
Vent: O 4 km/h
Température: 11°C
Point de rosée: 10°C
Humidité: 94%
Baromètre: 1015 hPa
Résumé: Clair
Visibility: greater than 10 km
2020/09/21 04:00 LFPT 210400Z AUTO 27002KT CAVOK 11/10 Q1015
LFPB - Paris/Le Bourget, France
Distance from station: S 132km
Mise à jour: 21/09/2020 06:00
Clair
Clair
 Vent varies
Vent: varies 2 km/h
Température: 14°C
Point de rosée: 9°C
Humidité: 72%
Baromètre: 1015 hPa
Résumé: Clair
Visibility: greater than 10 km
2020/09/21 04:00 LFPB 210400Z AUTO VRB01KT CAVOK 14/09 Q1015
EBFS - Florennes (bel-A, Belgium
Distance from station: E 133km
Mise à jour: 21/09/2020 05:55
Très nuageux
Très nuageux
 Vent varies
Vent: varies 2 km/h
Température: 10°C
Point de rosée: 5°C
Humidité: 71%
Baromètre: 1016 hPa
Clouds: Très nuageux
Visibility: 10 km
Cloud details: Quelques nuages 2438 m
Très nuageux 3048 m
Très nuageux 3353 m
2020/09/21 03:55 EBFS 210355Z AUTO VRB01KT 9999 FEW080/// BKN100/// BKN110/// 10/05 Q1016 BLU
 
LFQA - Reims/Prunay, France
Distance from station: SE 143km
Mise à jour: 21/09/2020 06:00
Clair
Clair
 Vent calm
Vent: calme
Température: 5°C
Point de rosée: 3°C
Humidité: 87%
Baromètre: 1015 hPa
Résumé: Clair
Visibility: greater than 10 km
2020/09/21 04:00 LFQA 210400Z AUTO 00000KT CAVOK 05/03 Q1015
LFOP - Rouen/Boos (aut), France
Distance from station: SO 144km
Mise à jour: 21/09/2020 06:00
Clair
Clair
 Vent N
Vent: N 9 km/h
Température: 14°C
Point de rosée: 10°C
Humidité: 77%
Baromètre: 1016 hPa
Résumé: Clair
Visibility: greater than 10 km
2020/09/21 04:00 LFOP 210400Z AUTO 36005KT CAVOK 14/10 Q1016
EBBR - Brussels Nationa, Belgium
Distance from station: NE 148km
Mise à jour: 21/09/2020 05:50
Clair
Clair
 Vent calm
Vent: calme
Température: 7°C
Point de rosée: 6°C
Humidité: 93%
Baromètre: 1016 hPa
Résumé: Clair
Visibility: greater than 10 km
2020/09/21 03:50 EBBR 210350Z 00000KT CAVOK 07/06 Q1016 NOSIG
 
EBBE - Beauvechain (baf, Belgium
Distance from station: ENE 156km
Mise à jour: 21/09/2020 05:55
Clair
Clair
 Vent varies
Vent: varies 4 km/h
Température: 10°C
Point de rosée: 7°C
Humidité: 82%
Baromètre: 1016 hPa
Clouds: Clair
Visibility: 10 km
2020/09/21 03:55 EBBE 210355Z AUTO VRB02KT 9999 NCD 10/07 Q1016 BLU
EHFS - Vlissingen, Netherlands
Distance from station: NNE 157km
Mise à jour: 21/09/2020 05:55
Clair
Clair
 Vent NNE
Vent: NNE 11 km/h
Température: 13°C
Point de rosée: 11°C
Humidité: 88%
Baromètre: 1017 hPa
Clouds: Clair
Visibility: 10 km
2020/09/21 03:55 EHFS 210355Z AUTO 03006KT 360V060 9999 NCD 13/11 Q1017
LFPV - Villacoublay/Vel, France
Distance from station: SSO 157km
Mise à jour: 21/09/2020 06:00
Clair
Clair
 Vent NNO
Vent: NNO 11 km/h
Température: 15°C
Point de rosée: 9°C
Humidité: 68%
Baromètre: 1015 hPa
Résumé: Clair
Visibility: greater than 10 km
2020/09/21 04:00 LFPV 210400Z AUTO 33006KT 310V010 CAVOK 15/09 Q1015
 
EGMD - Lydd Airport, United Kingdom
Distance from station: NO 160km
Mise à jour: 21/09/2020 05:50
Brume, Clair
Brume, Clair
 Vent NNO
Vent: NNO 13 km/h
Température: 12°C
Point de rosée: 11°C
Humidité: 94%
Baromètre: 1017 hPa
Résumé: Brume
Clouds: Clair
Visibility: 5 km
2020/09/21 03:50 EGMD 210350Z AUTO 34007KT 5000 BR NCD 12/11 Q1017